createdAt,value
2023-06-30T00:01:16.185Z,95425.00
2023-06-30T00:05:19.287Z,95419.00
2023-06-30T00:09:22.683Z,95407.00
2023-06-30T00:13:26.859Z,95398.00
2023-06-30T00:17:29.734Z,95401.00
2023-06-30T00:21:32.781Z,95396.00
2023-06-30T00:25:35.741Z,95387.00
2023-06-30T00:29:39.971Z,95381.00
2023-06-30T00:33:42.806Z,95383.00
2023-06-30T00:37:46.162Z,95385.00
2023-06-30T00:41:49.039Z,95376.00
2023-06-30T00:45:53.331Z,95368.00
2023-06-30T00:49:56.260Z,95368.00
2023-06-30T00:53:59.265Z,95371.00
2023-06-30T00:58:02.671Z,95365.00
2023-06-30T01:02:14.425Z,95368.00
2023-06-30T01:06:25.652Z,95368.00
2023-06-30T01:10:30.674Z,95363.00
2023-06-30T01:14:34.057Z,95356.00
2023-06-30T01:18:42.469Z,95355.00
2023-06-30T01:22:48.455Z,95352.00
2023-06-30T01:26:51.960Z,95338.00
2023-06-30T01:30:55.408Z,95340.00
2023-06-30T01:34:59.820Z,95350.00
2023-06-30T01:39:02.691Z,95350.00
2023-06-30T01:43:06.211Z,95347.00
2023-06-30T01:47:11.380Z,95346.00
2023-06-30T01:51:16.619Z,95340.00
2023-06-30T01:55:20.263Z,95337.00
2023-06-30T01:59:23.151Z,95331.00
2023-06-30T02:03:26.182Z,95324.00
2023-06-30T02:07:30.420Z,95331.00
2023-06-30T02:11:33.413Z,95325.00
2023-06-30T02:15:36.356Z,95318.00
2023-06-30T02:19:39.320Z,95327.00
2023-06-30T02:23:43.777Z,95320.00
2023-06-30T02:27:47.186Z,95314.00
2023-06-30T02:31:54.810Z,95319.00
2023-06-30T02:35:58.228Z,95315.00
2023-06-30T02:40:02.424Z,95318.00
2023-06-30T02:44:06.592Z,95315.00
2023-06-30T02:48:09.820Z,95313.00
2023-06-30T02:52:12.715Z,95320.00
2023-06-30T02:56:16.951Z,95317.00
2023-06-30T03:00:21.636Z,95312.00
2023-06-30T03:04:25.184Z,95310.00
2023-06-30T03:08:28.167Z,95313.00
2023-06-30T03:12:32.598Z,95307.00
2023-06-30T03:16:37.708Z,95313.00
2023-06-30T03:20:40.810Z,95319.00
2023-06-30T03:24:43.692Z,95310.00
2023-06-30T03:28:47.887Z,95317.00
2023-06-30T03:32:50.972Z,95306.00
2023-06-30T03:36:53.811Z,95301.00
2023-06-30T03:40:58.737Z,95296.00
2023-06-30T03:45:07.861Z,95302.00
2023-06-30T03:49:10.773Z,95308.00
2023-06-30T03:53:15.957Z,95313.00
2023-06-30T03:57:18.793Z,95312.00
2023-06-30T04:01:23.046Z,95307.00
2023-06-30T04:05:25.883Z,95310.00
2023-06-30T04:09:28.691Z,95308.00
2023-06-30T04:13:31.531Z,95306.00
2023-06-30T04:17:35.821Z,95299.00
2023-06-30T04:21:38.898Z,95289.00
2023-06-30T04:25:41.763Z,95282.00
2023-06-30T04:29:44.624Z,95277.00
2023-06-30T04:33:48.839Z,95273.00
2023-06-30T04:37:51.677Z,95272.00
2023-06-30T04:41:54.514Z,95265.00
2023-06-30T04:45:58.667Z,95258.00
2023-06-30T04:50:03.896Z,95250.00
2023-06-30T04:54:06.767Z,95246.00
2023-06-30T04:58:09.616Z,95249.00
2023-06-30T05:02:12.538Z,95258.00
2023-06-30T05:06:16.805Z,95259.00
2023-06-30T05:10:19.683Z,95250.00
2023-06-30T05:14:22.581Z,95241.00
2023-06-30T05:18:25.492Z,95246.00
2023-06-30T05:22:29.702Z,95246.00
2023-06-30T05:26:32.820Z,95254.00
2023-06-30T05:30:36.101Z,95249.00
2023-06-30T05:34:38.922Z,95249.00
2023-06-30T05:38:43.166Z,95258.00
2023-06-30T05:42:46.035Z,95256.00
2023-06-30T05:46:48.998Z,95261.00
2023-06-30T05:50:51.919Z,95271.00
2023-06-30T05:54:56.285Z,95279.00
2023-06-30T05:59:00.361Z,95274.00
2023-06-30T06:03:03.660Z,95281.00
2023-06-30T06:07:06.865Z,95291.00
2023-06-30T06:11:11.222Z,95295.00
2023-06-30T06:15:14.076Z,95288.00
2023-06-30T06:19:18.179Z,95293.00
2023-06-30T06:23:21.063Z,95296.00
2023-06-30T06:27:25.478Z,95298.00
2023-06-30T06:31:28.518Z,95302.00
2023-06-30T06:35:31.511Z,95304.00
2023-06-30T06:39:34.341Z,95307.00
2023-06-30T06:43:38.597Z,95307.00
2023-06-30T06:48:20.046Z,95311.00
2023-06-30T06:52:22.916Z,95311.00
2023-06-30T06:56:25.808Z,95309.00
2023-06-30T07:00:30.014Z,95314.00
2023-06-30T07:04:32.850Z,95311.00
2023-06-30T07:08:36.366Z,95314.00
2023-06-30T07:12:39.246Z,95302.00
2023-06-30T07:16:43.595Z,95296.00
2023-06-30T07:20:46.523Z,95301.00
2023-06-30T07:24:49.477Z,95303.00
2023-06-30T07:28:52.341Z,95298.00
2023-06-30T07:32:57.241Z,95297.00
2023-06-30T07:37:00.087Z,95301.00
2023-06-30T07:41:02.966Z,95301.00
2023-06-30T07:45:07.335Z,95311.00
2023-06-30T07:49:11.512Z,95306.00
2023-06-30T07:53:14.364Z,95302.00
2023-06-30T07:57:17.224Z,95304.00
2023-06-30T08:01:20.061Z,95312.00
2023-06-30T08:05:24.490Z,95319.00
2023-06-30T08:09:27.751Z,95316.00
2023-06-30T08:13:30.606Z,95319.00
2023-06-30T08:17:51.980Z,95323.00
2023-06-30T08:21:57.612Z,95321.00
2023-06-30T08:26:00.586Z,95326.00
2023-06-30T08:30:03.452Z,95325.00
2023-06-30T08:34:06.674Z,95322.00
2023-06-30T08:38:11.170Z,95320.00
2023-06-30T08:42:17.037Z,95320.00
2023-06-30T08:46:23.720Z,95320.00
2023-06-30T08:50:27.620Z,95327.00
2023-06-30T08:54:33.938Z,95332.00
2023-06-30T08:58:38.313Z,95333.00
2023-06-30T09:02:41.508Z,95332.00
2023-06-30T09:06:48.798Z,95331.00
2023-06-30T09:10:54.086Z,95323.00
2023-06-30T09:15:01.002Z,95325.00
2023-06-30T09:19:03.886Z,95332.00
2023-06-30T09:23:06.801Z,95324.00
2023-06-30T09:27:12.630Z,95318.00
2023-06-30T09:31:17.695Z,95314.00
2023-06-30T09:35:20.800Z,95306.00
2023-06-30T09:39:24.697Z,95309.00
2023-06-30T09:43:29.133Z,95319.00
2023-06-30T09:47:32.379Z,95325.00
2023-06-30T09:51:35.640Z,95319.00
2023-06-30T09:55:49.793Z,95322.00
2023-06-30T09:59:54.069Z,95327.00
2023-06-30T10:03:57.753Z,95322.00
2023-06-30T10:08:02.181Z,95318.00
2023-06-30T10:12:06.611Z,95326.00
2023-06-30T10:16:11.520Z,95329.00
2023-06-30T10:20:14.490Z,95334.00
2023-06-30T10:24:19.356Z,95346.00
2023-06-30T10:28:23.065Z,95350.00
2023-06-30T10:32:27.281Z,95352.00
2023-06-30T10:36:30.934Z,95330.00
2023-06-30T10:40:34.102Z,95325.00
2023-06-30T10:44:40.664Z,95332.00
2023-06-30T10:48:45.696Z,95321.00
2023-06-30T10:52:53.016Z,95319.00
2023-06-30T10:57:07.239Z,95310.00
2023-06-30T11:01:11.798Z,95305.00
2023-06-30T11:05:25.287Z,95303.00
2023-06-30T11:09:28.164Z,95302.00
2023-06-30T11:13:38.239Z,95298.00
2023-06-30T11:18:00.960Z,95298.00
2023-06-30T11:22:27.436Z,95293.00
2023-06-30T11:26:30.500Z,95299.00
2023-06-30T11:30:36.834Z,95293.00
2023-06-30T11:34:39.917Z,95282.00
2023-06-30T11:38:45.727Z,95278.00
2023-06-30T11:42:48.595Z,95277.00
2023-06-30T11:46:53.981Z,95263.00
2023-06-30T11:50:57.983Z,95253.00
2023-06-30T11:55:06.679Z,95242.00
2023-06-30T11:59:09.510Z,95242.00
2023-06-30T12:03:17.012Z,95238.00
2023-06-30T12:07:23.432Z,95240.00
2023-06-30T12:11:30.633Z,95241.00
2023-06-30T12:15:33.747Z,95243.00
2023-06-30T12:19:36.580Z,95241.00
2023-06-30T12:23:42.242Z,95251.00
2023-06-30T12:27:46.507Z,95236.00
2023-06-30T12:31:49.461Z,95239.00
2023-06-30T12:35:52.345Z,95228.00
2023-06-30T12:39:55.185Z,95221.00
2023-06-30T12:44:02.207Z,95214.00
2023-06-30T12:48:05.822Z,95203.00
2023-06-30T12:52:09.284Z,95205.00
2023-06-30T12:56:12.079Z,95210.00
2023-06-30T13:00:18.311Z,95204.00
2023-06-30T13:04:21.157Z,95201.00
2023-06-30T13:08:24.030Z,95185.00
2023-06-30T13:12:27.478Z,95180.00
2023-06-30T13:16:31.765Z,95188.00
2023-06-30T13:20:34.598Z,95178.00
2023-06-30T13:24:37.394Z,95190.00
2023-06-30T13:28:40.280Z,95208.00
2023-06-30T13:32:45.083Z,95207.00
2023-06-30T13:36:47.961Z,95211.00
2023-06-30T13:40:50.838Z,95213.00
2023-06-30T13:44:53.704Z,95231.00
2023-06-30T13:48:57.857Z,95223.00
2023-06-30T13:53:00.690Z,95195.00
2023-06-30T13:57:03.600Z,95201.00
2023-06-30T14:01:07.169Z,95201.00
2023-06-30T14:05:12.877Z,95197.00
2023-06-30T14:09:15.807Z,95202.00
2023-06-30T14:13:18.640Z,95204.00
2023-06-30T14:17:21.509Z,95196.00
2023-06-30T14:21:25.729Z,95187.00
2023-06-30T14:25:28.693Z,95190.00
2023-06-30T14:29:31.544Z,95187.00
2023-06-30T14:33:34.561Z,95185.00
2023-06-30T14:37:38.797Z,95183.00
2023-06-30T14:41:49.988Z,95178.00
2023-06-30T14:46:00.462Z,95172.00
2023-06-30T14:50:03.339Z,95184.00
2023-06-30T14:54:07.674Z,95180.00
2023-06-30T14:58:10.979Z,95174.00
2023-06-30T15:02:14.915Z,95173.00
2023-06-30T15:06:17.958Z,95173.00
2023-06-30T15:10:22.150Z,95172.00
2023-06-30T15:14:25.232Z,95169.00
2023-06-30T15:18:28.071Z,95162.00
2023-06-30T15:22:32.081Z,95154.00
2023-06-30T15:26:36.390Z,95145.00
2023-06-30T15:30:39.301Z,95142.00
2023-06-30T15:34:42.163Z,95146.00
2023-06-30T15:38:45.288Z,95139.00
2023-06-30T15:42:49.524Z,95141.00
2023-06-30T15:46:52.402Z,95139.00
2023-06-30T15:50:55.291Z,95131.00
2023-06-30T15:55:08.551Z,95135.00
2023-06-30T15:59:12.833Z,95127.00
2023-06-30T16:03:15.978Z,95127.00
2023-06-30T16:07:18.966Z,95113.00
2023-06-30T16:11:21.811Z,95115.00
2023-06-30T16:15:26.038Z,95123.00
2023-06-30T16:19:29.056Z,95117.00
2023-06-30T16:23:31.937Z,95126.00
2023-06-30T16:27:34.837Z,95129.00
2023-06-30T16:31:39.111Z,95122.00
2023-06-30T16:35:41.994Z,95125.00
2023-06-30T16:39:45.109Z,95130.00
2023-06-30T16:43:47.972Z,95125.00
2023-06-30T16:47:52.221Z,95126.00
2023-06-30T16:51:55.116Z,95133.00
2023-06-30T16:55:58.097Z,95139.00
2023-06-30T17:00:04.737Z,95139.00
2023-06-30T17:04:09.260Z,95143.00
2023-06-30T17:08:12.148Z,95137.00
2023-06-30T17:12:15.077Z,95142.00
2023-06-30T17:16:18.237Z,95144.00
2023-06-30T17:20:22.456Z,95154.00
2023-06-30T17:24:25.781Z,95141.00
2023-06-30T17:28:28.709Z,95146.00
2023-06-30T17:32:31.712Z,95140.00
2023-06-30T17:36:36.232Z,95147.00
2023-06-30T17:40:39.063Z,95151.00
2023-06-30T17:44:42.574Z,95151.00
2023-06-30T17:48:45.524Z,95156.00
2023-06-30T17:52:49.748Z,95155.00
2023-06-30T17:56:52.654Z,95155.00
2023-06-30T18:00:55.477Z,95162.00
2023-06-30T18:04:58.728Z,95163.00
2023-06-30T18:09:03.233Z,95146.00
2023-06-30T18:13:06.033Z,95143.00
2023-06-30T18:17:08.896Z,95155.00
2023-06-30T18:21:12.798Z,95150.00
2023-06-30T18:25:17.069Z,95161.00
2023-06-30T18:29:22.586Z,95157.00
2023-06-30T18:33:25.523Z,95163.00
2023-06-30T18:37:30.176Z,95169.00
2023-06-30T18:41:34.527Z,95172.00
2023-06-30T18:45:37.336Z,95172.00
2023-06-30T18:49:40.176Z,95174.00
2023-06-30T18:53:43.052Z,95175.00
2023-06-30T18:57:47.282Z,95171.00
2023-06-30T19:01:51.537Z,95184.00
2023-06-30T19:05:59.970Z,95186.00
2023-06-30T19:10:02.798Z,95190.00
2023-06-30T19:14:07.019Z,95203.00
2023-06-30T19:18:09.897Z,95198.00
2023-06-30T19:22:12.858Z,95210.00
2023-06-30T19:26:16.119Z,95212.00
2023-06-30T19:30:22.267Z,95213.00
2023-06-30T19:34:25.821Z,95214.00
2023-06-30T19:38:29.574Z,95217.00
2023-06-30T19:42:32.401Z,95223.00
2023-06-30T19:46:36.785Z,95223.00
2023-06-30T19:50:39.848Z,95227.00
2023-06-30T19:54:44.595Z,95226.00
2023-06-30T19:58:47.759Z,95232.00
2023-06-30T20:02:52.051Z,95226.00
2023-06-30T20:06:54.953Z,95220.00
2023-06-30T20:10:57.807Z,95229.00
2023-06-30T20:15:01.819Z,95229.00
2023-06-30T20:19:06.096Z,95225.00
2023-06-30T20:23:08.938Z,95221.00
2023-06-30T20:27:11.759Z,95224.00
2023-06-30T20:31:14.624Z,95225.00
2023-06-30T20:35:20.074Z,95220.00
2023-06-30T20:39:22.984Z,95223.00
2023-06-30T20:43:25.896Z,95225.00
2023-06-30T20:47:28.812Z,95222.00
2023-06-30T20:51:33.147Z,95220.00
2023-06-30T20:55:36.009Z,95229.00
2023-06-30T20:59:38.847Z,95233.00
2023-06-30T21:03:41.927Z,95237.00
2023-06-30T21:07:46.230Z,95228.00
2023-06-30T21:11:49.365Z,95235.00
2023-06-30T21:15:52.347Z,95242.00
2023-06-30T21:19:55.246Z,95236.00
2023-06-30T21:23:59.486Z,95235.00
2023-06-30T21:28:02.645Z,95243.00
2023-06-30T21:32:08.285Z,95256.00
2023-06-30T21:36:11.754Z,95256.00
2023-06-30T21:40:16.168Z,95255.00
2023-06-30T21:44:19.224Z,95255.00
2023-06-30T21:48:22.159Z,95254.00
2023-06-30T21:52:25.134Z,95254.00
2023-06-30T21:56:29.383Z,95250.00
2023-06-30T22:00:32.214Z,95247.00
2023-06-30T22:04:35.123Z,95253.00
2023-06-30T22:08:37.958Z,95250.00
2023-06-30T22:12:42.132Z,95248.00
2023-06-30T22:16:45.798Z,95255.00
2023-06-30T22:20:48.952Z,95247.00
2023-06-30T22:24:51.993Z,95249.00
2023-06-30T22:28:56.225Z,95246.00
2023-06-30T22:32:59.220Z,95251.00
2023-06-30T22:37:02.150Z,95245.00
2023-06-30T22:41:05.084Z,95241.00
2023-06-30T22:45:10.379Z,95237.00
2023-06-30T22:49:13.272Z,95230.00
2023-06-30T22:53:16.264Z,95235.00
2023-06-30T22:57:19.126Z,95236.00
2023-06-30T23:01:23.571Z,95228.00
2023-06-30T23:05:26.486Z,95230.00
2023-06-30T23:09:29.306Z,95233.00
2023-06-30T23:13:32.144Z,95228.00
2023-06-30T23:17:36.587Z,95216.00
2023-06-30T23:21:39.940Z,95227.00
2023-06-30T23:25:42.871Z,95225.00
2023-06-30T23:29:50.147Z,95224.00
2023-06-30T23:33:56.385Z,95230.00
2023-06-30T23:37:59.229Z,95229.00
2023-06-30T23:42:02.105Z,95224.00
2023-06-30T23:46:05.022Z,95229.00
2023-06-30T23:50:11.381Z,95218.00
2023-06-30T23:54:14.811Z,95223.00
2023-06-30T23:58:17.628Z,95222.00
